Bougainville Reef, Australia
Current Conditions -  °F | °C
As of 4:00 AM on Saturday 25 Oct 2014 (Local Time) from YBCS Reporting Station
Few Clouds Few Clouds  
Wind Chill: 72°   Ceiling: Unl
Heat Index: 72°   Visibility: 6mi
Dew Point: 63°   Wind: 10mph
Humidity: 73%   Direction: 170°S
Pressure: 30"   Gusts: NA
Location:  15.5°S, 147.12°E
Report Text: YBCS 241800Z 17009KT 9999 FEW026 22/17 Q1016
Loading
Personal Weather Stations






























Interactive Weather Map
Tropical Storm Tracking
New forecast layout! Learn more

10-Day Weather Forecast

Advertisements
Track Severe Weather on mobile